This demonstration page uses our WeatherBlox Daily Observations layout. Learn more.

Left ArrowRight Arrow

Hourly Observations for September 25, 2020

Temp ( °F °C ) Dew Point ( °F °C ) Humidity (%) Winds ( mph kmh ) Pressure ( in mb ) Visibility ( mi km ) Precip ( " mm )
12:51 am 00:51 Clear 69 20.6 33 0.6 26 26 E 3 6 29.77 1008 10 16.0934 0 0
1:51 am 01:51 Clear 68 20 33 0.6 27 27 Calm 29.78 1009 10 16.0934 0 0
2:51 am 02:51 Clear 67 19.4 32 0 27 27 SE 6 9 29.78 1009 10 16.0934 0 0
3:51 am 03:51 Clear 66 18.9 32 0 28 28 ESE 7 11 29.8 1009 10 16.0934 0 0
4:51 am 04:51 Clear 67 19.4 34 1.1 30 30 ESE 5 7 29.82 1010 10 16.0934 0 0
5:51 am 05:51 Clear 64 17.8 33 0.6 32 32 SSE 7 11 29.84 1011 10 16.0934 0 0
6:51 am 06:51 Sunny 65 18.3 33 0.6 31 31 E 5 7 29.87 1012 10 16.0934 0 0
7:51 am 07:51 Sunny 72 22.2 35 1.7 26 26 SSE 3 6 29.89 1012 10 16.0934 0 0
8:51 am 08:51 Sunny 80 26.7 36 2.2 20 20 Calm 29.88 1012 10 16.0934 0 0
9:51 am 09:51 Sunny 85 29.4 37 2.8 18 18 VRB 5 7 29.88 1012 10 16.0934 0 0
10:51 am 10:51 Sunny 89 31.7 38 3.3 16 16 S 3 6 29.87 1012 10 16.0934 0 0
11:51 am 11:51 Sunny 94 34.4 39 3.9 15 15 W 8 13 29.84 1011 10 16.0934 0 0
12:51 pm 12:51 Sunny 98 36.7 40 4.4 13 13 WNW 13 20 29.81 1010 10 16.0934 0 0
1:51 pm 13:51 Sunny 100 37.8 38 3.3 12 12 WNW 17 28 29.78 1009 10 16.0934 0 0
2:51 pm 14:51 Sunny 100 37.8 37 2.8 11 11 NW 12 19 29.76 1008 10 16.0934 0 0
3:51 pm 15:51 Sunny 100 37.8 36 2.2 11 11 WNW 20 31 29.75 1008 10 16.0934 0 0
4:51 pm 16:51 Sunny 98 36.7 36 2.2 11 11 WNW 13 20 29.75 1008 10 16.0934 0 0
5:51 pm 17:51 Sunny 95 35 35 1.7 12 12 WNW 12 19 29.77 1008 10 16.0934 0 0
6:51 pm 18:51 Clear 91 32.8 36 2.2 14 14 NW 13 20 29.78 1008 10 16.0934 0 0
7:51 pm 19:51 Clear 85 29.4 36 2.2 17 17 WNW 12 19 29.8 1009 10 16.0934 0 0
8:51 pm 20:51 Clear 84 28.9 36 2.2 18 18 WNW 13 20 29.8 1009 10 16.0934 0 0
9:51 pm 21:51 Clear 80 26.7 36 2.2 20 20 NW 9 15 29.81 1009 10 16.0934 0 0
10:51 pm 22:51 Clear 80 26.7 37 2.8 21 21 WNW 8 13 29.8 1009 10 16.0934 0 0
11:51 pm 23:51 Clear 78 25.6 37 2.8 23 23 WNW 9 15 29.8 1009 10 16.0934 0 0

Powered by AerisWeather